Time;durP1;ratioP1;P1;durP2;ratioP2;P2;SDS_P1;SDS_P2;PMS_P1;PMS_P2;Temp;Humidity;BMP_temperature;BMP_pressure;BME280_temperature;BME280_humidity;BME280_pressure;Samples;Min_cycle;Max_cycle;Signal;HPM_P1;HPM_P2
2022/09/21 00:01:22;;;;;;;;;;;;;;;;;;5098944;28;19923;-77
2022/09/21 00:03:47;;;;;;;;;;;;;;;;;;5080941;28;19923;-78
2022/09/21 00:06:14;;;;;;;;;;;;;;;;;;5064398;28;19918;-78
2022/09/21 00:08:39;;;;;;;;;;;;;;;;;;5098740;28;19972;-78
2022/09/21 00:11:04;;;;;;;;;;;;;;;;;;5098363;28;20014;-78
2022/09/21 00:13:32;;;;;;;;;;;;;;;;;;5080677;28;19916;-78
2022/09/21 00:15:57;;;;;;;;;;;;;;;;;;5080553;28;19918;-78
2022/09/21 00:18:23;;;;;;;;;;;;;;;;;;5098538;28;19916;-78
2022/09/21 00:20:48;;;;;;;;;;;;;;;;;;5080278;28;20021;-78
2022/09/21 00:23:13;;;;;;;;;;;;;;;;;;5098418;28;20252;-78
2022/09/21 00:25:39;;;;;;;;;;;;;;;;;;5098047;28;19959;-78
2022/09/21 00:28:04;;;;;;;;;;;;;;;;;;5098429;28;19916;-77
2022/09/21 00:30:30;;;;;;;;;;;;;;;;;;5080205;28;19966;-78
2022/09/21 00:32:55;;;;;;;;;;;;;;;;;;5098230;28;20291;-78
2022/09/21 00:35:20;;;;;;;;;;;;;;;;;;5098207;28;19948;-77
2022/09/21 00:37:45;;;;;;;;;;;;;;;;;;5098451;28;20314;-78
2022/09/21 00:40:11;;;;;;;;;;;;;;;;;;5097894;28;19916;-78
2022/09/21 00:42:36;;;;;;;;;;;;;;;;;;5098078;28;19919;-77
2022/09/21 00:45:02;;;;;;;;;;;;;;;;;;5098000;28;19916;-78
2022/09/21 00:47:27;;;;;;;;;;;;;;;;;;5097131;28;19939;-78
2022/09/21 00:49:53;;;;;;;;;;;;;;;;;;5079960;28;19920;-78
2022/09/21 00:52:18;;;;;;;;;;;;;;;;;;5080377;28;20249;-77
2022/09/21 00:54:45;;;;;;;;;;;;;;;;;;5079435;28;19916;-78
2022/09/21 00:57:11;;;;;;;;;;;;;;;;;;5097774;28;19916;-78
2022/09/21 00:59:37;;;;;;;;;;;;;;;;;;5079888;28;20007;-78
2022/09/21 01:02:02;;;;;;;;;;;;;;;;;;5079590;28;20352;-78
2022/09/21 01:04:27;;;;;;;;;;;;;;;;;;5097640;28;20348;-79
2022/09/21 01:06:53;;;;;;;;;;;;;;;;;;5079340;28;19966;-78
2022/09/21 01:09:19;;;;;;;;;;;;;;;;;;5097642;28;19963;-78
2022/09/21 01:12:14;;;;;;;;;;;;;;;;;;5079002;28;19931;-78
2022/09/21 01:14:42;;;;;;;;;;;;;;;;;;5079883;28;19982;-78
2022/09/21 01:17:10;;;;;;;;;;;;;;;;;;5097402;28;19935;-78
2022/09/21 01:19:51;;;;;;;;;;;;;;;;;;5097310;28;19951;-78
2022/09/21 01:22:17;;;;;;;;;;;;;;;;;;5079115;28;20325;-78
2022/09/21 01:24:43;;;;;;;;;;;;;;;;;;5079133;28;19920;-78
2022/09/21 01:27:08;;;;;;;;;;;;;;;;;;5097104;28;19916;-78
2022/09/21 01:29:37;;;;;;;;;;;;;;;;;;5097400;28;19982;-78
2022/09/21 01:32:07;;;;;;;;;;;;;;;;;;5097088;28;20313;-79
2022/09/21 01:34:33;;;;;;;;;;;;;;;;;;5079302;28;20014;-77
2022/09/21 01:37:00;;;;;;;;;;;;;;;;;;5078695;28;19948;-78
2022/09/21 01:39:25;;;;;;;;;;;;;;;;;;5079305;28;19916;-78
2022/09/21 01:41:51;;;;;;;;;;;;;;;;;;5078849;28;19965;-78
2022/09/21 01:44:20;;;;;;;;;;;;;;;;;;5062354;28;19916;-78
2022/09/21 01:46:47;;;;;;;;;;;;;;;;;;5096892;28;20034;-78
2022/09/21 01:49:13;;;;;;;;;;;;;;;;;;5078902;28;19916;-78
2022/09/21 01:51:42;;;;;;;;;;;;;;;;;;5078347;28;19912;-78
2022/09/21 01:54:09;;;;;;;;;;;;;;;;;;5078966;28;20253;-78
2022/09/21 01:57:01;;;;;;;;;;;;;;;;;;5078767;28;20351;-77
2022/09/21 01:59:45;;;;;;;;;;;;;;;;;;5092592;28;19912;-79
2022/09/21 02:02:14;;;;;;;;;;;;;;;;;;5096519;28;20318;-78
2022/09/21 02:04:39;;;;;;;;;;;;;;;;;;5078540;28;19939;-78
2022/09/21 02:07:05;;;;;;;;;;;;;;;;;;5078053;28;20318;-78
2022/09/21 02:09:30;;;;;;;;;;;;;;;;;;5096591;28;19923;-78
2022/09/21 02:11:57;;;;;;;;;;;;;;;;;;5096308;28;20253;-78
2022/09/21 02:14:22;;;;;;;;;;;;;;;;;;5096298;28;20395;-76
2022/09/21 02:17:08;;;;;;;;;;;;;;;;;;5078649;28;19916;-79
2022/09/21 02:19:45;;;;;;;;;;;;;;;;;;5081707;28;19916;-78
2022/09/21 02:22:11;;;;;;;;;;;;;;;;;;5094963;28;20307;-79
2022/09/21 02:24:38;;;;;;;;;;;;;;;;;;5097107;28;19916;-79
2022/09/21 02:27:11;;;;;;;;;;;;;;;;;;5096071;28;19916;-78
2022/09/21 02:29:41;;;;;;;;;;;;;;;;;;5077968;28;19916;-78
2022/09/21 02:32:08;;;;;;;;;;;;;;;;;;5061850;28;20318;-78
2022/09/21 02:34:44;;;;;;;;;;;;;;;;;;5078361;28;20295;-78
2022/09/21 02:37:16;;;;;;;;;;;;;;;;;;5081115;28;19916;-77
2022/09/21 02:39:44;;;;;;;;;;;;;;;;;;5105612;28;19945;-78
2022/09/21 02:42:17;;;;;;;;;;;;;;;;;;5104929;28;19922;-77
2022/09/21 02:44:46;;;;;;;;;;;;;;;;;;5087323;28;19926;-77
2022/09/21 02:47:16;;;;;;;;;;;;;;;;;;5103880;28;20249;-79
2022/09/21 02:49:43;;;;;;;;;;;;;;;;;;5080511;28;19989;-79
2022/09/21 02:52:13;;;;;;;;;;;;;;;;;;5078084;28;19912;-78
2022/09/21 02:54:38;;;;;;;;;;;;;;;;;;5077785;28;19916;-78
2022/09/21 02:57:04;;;;;;;;;;;;;;;;;;5077317;28;20011;-78
2022/09/21 02:59:30;;;;;;;;;;;;;;;;;;5060623;28;19917;-77
2022/09/21 03:01:55;;;;;;;;;;;;;;;;;;5077586;28;19916;-78
2022/09/21 03:04:21;;;;;;;;;;;;;;;;;;5077348;28;19923;-79
2022/09/21 03:06:47;;;;;;;;;;;;;;;;;;5095577;28;19939;-78
2022/09/21 03:09:12;;;;;;;;;;;;;;;;;;5060741;28;19978;-79
2022/09/21 03:11:38;;;;;;;;;;;;;;;;;;5095281;28;19920;-79
2022/09/21 03:14:07;;;;;;;;;;;;;;;;;;5095148;28;20277;-77
2022/09/21 03:16:33;;;;;;;;;;;;;;;;;;5095098;28;19912;-77
2022/09/21 03:18:58;;;;;;;;;;;;;;;;;;5095099;28;19923;-77
2022/09/21 03:21:23;;;;;;;;;;;;;;;;;;5095104;28;19912;-78
2022/09/21 03:23:49;;;;;;;;;;;;;;;;;;5077235;28;19916;-78
2022/09/21 03:26:14;;;;;;;;;;;;;;;;;;5077085;28;20245;-78
2022/09/21 03:28:39;;;;;;;;;;;;;;;;;;5094912;28;19995;-79
2022/09/21 03:31:05;;;;;;;;;;;;;;;;;;5094957;28;19916;-78
2022/09/21 03:33:30;;;;;;;;;;;;;;;;;;5094408;28;19923;-79
2022/09/21 03:35:56;;;;;;;;;;;;;;;;;;5094880;28;19916;-79
2022/09/21 03:38:21;;;;;;;;;;;;;;;;;;5094924;28;19973;-79
2022/09/21 03:40:46;;;;;;;;;;;;;;;;;;5095209;28;19916;-78
2022/09/21 03:43:12;;;;;;;;;;;;;;;;;;5095064;28;19916;-78
2022/09/21 03:45:40;;;;;;;;;;;;;;;;;;5094711;28;19921;-78
2022/09/21 03:48:05;;;;;;;;;;;;;;;;;;5094737;28;20232;-77
2022/09/21 03:50:31;;;;;;;;;;;;;;;;;;5076979;28;19923;-78
2022/09/21 03:52:56;;;;;;;;;;;;;;;;;;5095081;28;19923;-77
2022/09/21 03:55:21;;;;;;;;;;;;;;;;;;5077256;28;19916;-79
2022/09/21 03:57:47;;;;;;;;;;;;;;;;;;5095209;28;19916;-78
2022/09/21 04:00:12;;;;;;;;;;;;;;;;;;5076481;28;20253;-79
2022/09/21 04:02:41;;;;;;;;;;;;;;;;;;5059660;28;20000;-82
2022/09/21 04:05:07;;;;;;;;;;;;;;;;;;5060057;28;19979;-81
2022/09/21 04:07:35;;;;;;;;;;;;;;;;;;5076682;28;20325;-80
2022/09/21 04:10:00;;;;;;;;;;;;;;;;;;5077108;28;19916;-81
2022/09/21 04:12:26;;;;;;;;;;;;;;;;;;5094629;28;20003;-82
2022/09/21 04:14:51;;;;;;;;;;;;;;;;;;5076317;28;19916;-81
2022/09/21 04:17:17;;;;;;;;;;;;;;;;;;5076344;28;19923;-81
2022/09/21 04:19:44;;;;;;;;;;;;;;;;;;5076321;28;19916;-81
2022/09/21 04:22:10;;;;;;;;;;;;;;;;;;5076295;28;19955;-81
2022/09/21 04:24:37;;;;;;;;;;;;;;;;;;5077003;28;19916;-82
2022/09/21 04:27:03;;;;;;;;;;;;;;;;;;5094321;28;19958;-81
2022/09/21 04:29:28;;;;;;;;;;;;;;;;;;5076506;28;19927;-82
2022/09/21 04:31:53;;;;;;;;;;;;;;;;;;5076118;28;20262;-81
2022/09/21 04:34:19;;;;;;;;;;;;;;;;;;5076148;28;20360;-81
2022/09/21 04:36:44;;;;;;;;;;;;;;;;;;5094570;28;20300;-82
2022/09/21 04:39:10;;;;;;;;;;;;;;;;;;5094682;28;19945;-82
2022/09/21 04:41:35;;;;;;;;;;;;;;;;;;5094782;28;19916;-81
2022/09/21 04:44:01;;;;;;;;;;;;;;;;;;5092739;28;20010;-82
2022/09/21 04:46:26;;;;;;;;;;;;;;;;;;5082492;28;19920;-81
2022/09/21 04:48:52;;;;;;;;;;;;;;;;;;5077792;28;19916;-82
2022/09/21 04:51:17;;;;;;;;;;;;;;;;;;5061201;28;19962;-80
2022/09/21 04:53:43;;;;;;;;;;;;;;;;;;5081562;28;19920;-82
2022/09/21 04:56:20;;;;;;;;;;;;;;;;;;5093895;28;19928;-80
2022/09/21 04:58:49;;;;;;;;;;;;;;;;;;5079923;28;19916;-82
2022/09/21 05:01:15;;;;;;;;;;;;;;;;;;5105135;28;20113;-83
2022/09/21 05:03:40;;;;;;;;;;;;;;;;;;5097051;28;20034;-80
2022/09/21 05:06:06;;;;;;;;;;;;;;;;;;5112366;28;19927;-80
2022/09/21 05:11:34;;;;;;;;;;;;;;;;;;5091703;28;19943;-80
2022/09/21 05:14:00;;;;;;;;;;;;;;;;;;5092235;28;19916;-79
2022/09/21 05:16:25;;;;;;;;;;;;;;;;;;5088210;28;19920;-78
2022/09/21 05:18:51;;;;;;;;;;;;;;;;;;5093400;28;19924;-78
2022/09/21 05:21:17;;;;;;;;;;;;;;;;;;5092394;28;20018;-80
2022/09/21 05:23:42;;;;;;;;;;;;;;;;;;5072725;28;20027;-81
2022/09/21 05:26:09;;;;;;;;;;;;;;;;;;5074468;28;19924;-79
2022/09/21 05:28:34;;;;;;;;;;;;;;;;;;5092385;28;20420;-79
2022/09/21 05:31:22;;;;;;;;;;;;;;;;;;5072866;28;20045;-79
2022/09/21 05:33:51;;;;;;;;;;;;;;;;;;5098463;28;19920;-77
2022/09/21 05:36:37;;;;;;;;;;;;;;;;;;5093342;28;19969;-78
2022/09/21 05:39:03;;;;;;;;;;;;;;;;;;5097067;28;19924;-79
2022/09/21 05:41:31;;;;;;;;;;;;;;;;;;5105582;28;20006;-81
2022/09/21 05:43:56;;;;;;;;;;;;;;;;;;5102580;28;19920;-79
2022/09/21 05:46:42;;;;;;;;;;;;;;;;;;5097343;28;19928;-81
2022/09/21 05:49:21;;;;;;;;;;;;;;;;;;5039472;28;20289;-79
2022/09/21 05:51:56;;;;;;;;;;;;;;;;;;5080437;28;20230;-79
2022/09/21 05:54:21;;;;;;;;;;;;;;;;;;5093992;28;19967;-80
2022/09/21 05:56:47;;;;;;;;;;;;;;;;;;5099306;28;19920;-80
2022/09/21 05:59:15;;;;;;;;;;;;;;;;;;5080068;28;20361;-80
2022/09/21 06:01:59;;;;;;;;;;;;;;;;;;5091678;28;19925;-78
2022/09/21 06:04:31;;;;;;;;;;;;;;;;;;5073608;28;19927;-81
2022/09/21 06:06:56;;;;;;;;;;;;;;;;;;5095096;28;19924;-79
2022/09/21 06:09:21;;;;;;;;;;;;;;;;;;5095017;28;20226;-78
2022/09/21 06:11:47;;;;;;;;;;;;;;;;;;5097460;28;19919;-80
2022/09/21 06:14:12;;;;;;;;;;;;;;;;;;5095275;28;19916;-78
2022/09/21 06:16:40;;;;;;;;;;;;;;;;;;5095906;28;19942;-79
2022/09/21 06:19:06;;;;;;;;;;;;;;;;;;5077589;28;20003;-80
2022/09/21 06:21:31;;;;;;;;;;;;;;;;;;5095000;28;19966;-80
2022/09/21 06:23:56;;;;;;;;;;;;;;;;;;5094840;28;19920;-77
2022/09/21 06:26:22;;;;;;;;;;;;;;;;;;5099070;28;19927;-80
2022/09/21 06:28:47;;;;;;;;;;;;;;;;;;5084810;28;19935;-79
2022/09/21 06:31:13;;;;;;;;;;;;;;;;;;5115498;28;19915;-79
2022/09/21 06:33:38;;;;;;;;;;;;;;;;;;5109452;28;19978;-80
2022/09/21 06:36:05;;;;;;;;;;;;;;;;;;5100509;28;19924;-78
2022/09/21 06:38:30;;;;;;;;;;;;;;;;;;5093996;28;19920;-77
2022/09/21 06:40:59;;;;;;;;;;;;;;;;;;5077833;28;19951;-79
2022/09/21 06:43:24;;;;;;;;;;;;;;;;;;5090042;28;19935;-77
2022/09/21 06:45:54;;;;;;;;;;;;;;;;;;5086697;28;20287;-78
2022/09/21 06:48:19;;;;;;;;;;;;;;;;;;5093762;28;19928;-78
2022/09/21 06:50:44;;;;;;;;;;;;;;;;;;5094810;28;20050;-79
2022/09/21 06:53:10;;;;;;;;;;;;;;;;;;5061836;28;20337;-78
2022/09/21 06:55:35;;;;;;;;;;;;;;;;;;5092616;28;19920;-80
2022/09/21 06:58:01;;;;;;;;;;;;;;;;;;5093883;28;19916;-77
2022/09/21 07:00:27;;;;;;;;;;;;;;;;;;5091786;28;20031;-78
2022/09/21 07:02:52;;;;;;;;;;;;;;;;;;5094328;28;19916;-75
2022/09/21 07:05:18;;;;;;;;;;;;;;;;;;5092883;28;19926;-76
2022/09/21 07:07:43;;;;;;;;;;;;;;;;;;5093856;28;19920;-77
2022/09/21 07:10:09;;;;;;;;;;;;;;;;;;5088736;28;19928;-79
2022/09/21 07:12:34;;;;;;;;;;;;;;;;;;5100711;28;20436;-78
2022/09/21 07:15:00;;;;;;;;;;;;;;;;;;5091299;28;19916;-76
2022/09/21 07:17:30;;;;;;;;;;;;;;;;;;5091613;28;19943;-76
2022/09/21 07:19:55;;;;;;;;;;;;;;;;;;5085885;28;19920;-79
2022/09/21 07:22:21;;;;;;;;;;;;;;;;;;5087577;28;20023;-78
2022/09/21 07:24:46;;;;;;;;;;;;;;;;;;5087677;28;20015;-78
2022/09/21 07:27:11;;;;;;;;;;;;;;;;;;5088446;28;19931;-77
2022/09/21 07:29:43;;;;;;;;;;;;;;;;;;5092267;28;19951;-76
2022/09/21 07:32:09;;;;;;;;;;;;;;;;;;5089741;28;19916;-76
2022/09/21 07:34:36;;;;;;;;;;;;;;;;;;5068686;28;20277;-76
2022/09/21 07:37:01;;;;;;;;;;;;;;;;;;5084335;28;19924;-76
2022/09/21 07:39:27;;;;;;;;;;;;;;;;;;5085315;28;19920;-76
2022/09/21 07:41:52;;;;;;;;;;;;;;;;;;5078929;28;20326;-76
2022/09/21 07:44:19;;;;;;;;;;;;;;;;;;5074216;28;20269;-77
2022/09/21 07:46:47;;;;;;;;;;;;;;;;;;5087776;28;20226;-74
2022/09/21 07:49:12;;;;;;;;;;;;;;;;;;5076542;28;20027;-75
2022/09/21 07:51:37;;;;;;;;;;;;;;;;;;5070349;28;20069;-77
2022/09/21 07:54:03;;;;;;;;;;;;;;;;;;5087275;28;19917;-76
2022/09/21 07:56:29;;;;;;;;;;;;;;;;;;5085995;28;19999;-77
2022/09/21 07:59:06;;;;;;;;;;;;;;;;;;5083269;28;20423;-74
2022/09/21 08:01:34;;;;;;;;;;;;;;;;;;5077204;28;20242;-76
2022/09/21 08:03:59;;;;;;;;;;;;;;;;;;5069441;28;20069;-75
2022/09/21 08:06:26;;;;;;;;;;;;;;;;;;5048055;28;20010;-76
2022/09/21 08:08:52;;;;;;;;;;;;;;;;;;5067571;28;19954;-75
2022/09/21 08:11:20;;;;;;;;;;;;;;;;;;5065914;28;19928;-77
2022/09/21 08:13:46;;;;;;;;;;;;;;;;;;5051770;28;19917;-76
2022/09/21 08:16:11;;;;;;;;;;;;;;;;;;5073596;28;20321;-78
2022/09/21 08:18:37;;;;;;;;;;;;;;;;;;5074249;28;20003;-76
2022/09/21 08:21:02;;;;;;;;;;;;;;;;;;5073338;28;19917;-76
2022/09/21 08:23:28;;;;;;;;;;;;;;;;;;5072215;28;19916;-78
2022/09/21 08:25:57;;;;;;;;;;;;;;;;;;5072406;28;19916;-76
2022/09/21 08:28:23;;;;;;;;;;;;;;;;;;5072919;28;19921;-76
2022/09/21 08:30:49;;;;;;;;;;;;;;;;;;5074652;28;19916;-75
2022/09/21 08:33:14;;;;;;;;;;;;;;;;;;5074742;28;19917;-77
2022/09/21 08:35:39;;;;;;;;;;;;;;;;;;5074983;28;19917;-76
2022/09/21 08:38:05;;;;;;;;;;;;;;;;;;5074610;28;20019;-78
2022/09/21 08:40:32;;;;;;;;;;;;;;;;;;5077287;28;20011;-77
2022/09/21 08:43:00;;;;;;;;;;;;;;;;;;5076756;28;19930;-76
2022/09/21 08:45:30;;;;;;;;;;;;;;;;;;5077275;28;20015;-77
2022/09/21 08:47:56;;;;;;;;;;;;;;;;;;5079612;28;20218;-77
2022/09/21 08:50:31;;;;;;;;;;;;;;;;;;5085725;28;20313;-77
2022/09/21 08:53:00;;;;;;;;;;;;;;;;;;5094509;28;20574;-78
2022/09/21 08:55:26;;;;;;;;;;;;;;;;;;5094172;28;19927;-77
2022/09/21 08:57:51;;;;;;;;;;;;;;;;;;5084242;28;20401;-77
2022/09/21 09:00:17;;;;;;;;;;;;;;;;;;5088388;28;20306;-78
2022/09/21 09:03:02;;;;;;;;;;;;;;;;;;5096017;28;19966;-76
2022/09/21 09:05:47;;;;;;;;;;;;;;;;;;5095033;28;19916;-76
2022/09/21 09:08:31;;;;;;;;;;;;;;;;;;5092920;28;19916;-74
2022/09/21 09:11:15;;;;;;;;;;;;;;;;;;5100529;28;19981;-75
2022/09/21 09:13:41;;;;;;;;;;;;;;;;;;5095732;28;19923;-75
2022/09/21 09:16:12;;;;;;;;;;;;;;;;;;5113333;28;19916;-77
2022/09/21 09:18:53;;;;;;;;;;;;;;;;;;5096655;28;20245;-75
2022/09/21 09:21:24;;;;;;;;;;;;;;;;;;5096728;28;19915;-76
2022/09/21 09:23:53;;;;;;;;;;;;;;;;;;5119142;28;19939;-77
2022/09/21 09:26:20;;;;;;;;;;;;;;;;;;5099033;28;19965;-77
2022/09/21 09:28:58;;;;;;;;;;;;;;;;;;5097893;28;19915;-76
2022/09/21 09:31:24;;;;;;;;;;;;;;;;;;5098010;28;19922;-76
2022/09/21 09:33:51;;;;;;;;;;;;;;;;;;5099750;28;19922;-76
2022/09/21 09:36:17;;;;;;;;;;;;;;;;;;5098075;28;20269;-78
2022/09/21 09:38:48;;;;;;;;;;;;;;;;;;5098712;28;19916;-78
2022/09/21 09:41:19;;;;;;;;;;;;;;;;;;5093092;28;19927;-78
2022/09/21 09:43:48;;;;;;;;;;;;;;;;;;5078229;28;19928;-77
2022/09/21 09:46:17;;;;;;;;;;;;;;;;;;5083647;28;20321;-79
2022/09/21 09:48:45;;;;;;;;;;;;;;;;;;5097729;28;19917;-78
2022/09/21 09:51:11;;;;;;;;;;;;;;;;;;5100556;28;20506;-78
2022/09/21 09:53:37;;;;;;;;;;;;;;;;;;5112663;28;19927;-78
2022/09/21 09:56:02;;;;;;;;;;;;;;;;;;5113286;28;20008;-80
2022/09/21 09:58:46;;;;;;;;;;;;;;;;;;5092196;28;20359;-80
2022/09/21 10:01:31;;;;;;;;;;;;;;;;;;5095342;28;19916;-79
2022/09/21 10:04:07;;;;;;;;;;;;;;;;;;5093587;28;20253;-80
2022/09/21 10:06:35;;;;;;;;;;;;;;;;;;5108911;28;19919;-78
2022/09/21 10:09:00;;;;;;;;;;;;;;;;;;5095803;28;20011;-83
2022/09/21 10:11:35;;;;;;;;;;;;;;;;;;5108321;28;19920;-79
2022/09/21 10:14:08;;;;;;;;;;;;;;;;;;5088699;28;19959;-80
2022/09/21 10:16:33;;;;;;;;;;;;;;;;;;5091894;28;20023;-83
2022/09/21 10:19:00;;;;;;;;;;;;;;;;;;5094455;28;20393;-81
2022/09/21 10:21:28;;;;;;;;;;;;;;;;;;5095569;28;20261;-79
2022/09/21 10:24:15;;;;;;;;;;;;;;;;;;5115058;28;19916;-81
2022/09/21 10:26:40;;;;;;;;;;;;;;;;;;5116806;28;20320;-80
2022/09/21 10:29:17;;;;;;;;;;;;;;;;;;5116391;28;19926;-80
2022/09/21 10:31:58;;;;;;;;;;;;;;;;;;5116374;28;19973;-80
2022/09/21 10:34:23;;;;;;;;;;;;;;;;;;5116050;28;19938;-79
2022/09/21 10:36:50;;;;;;;;;;;;;;;;;;5094132;28;20317;-79
2022/09/21 10:39:19;;;;;;;;;;;;;;;;;;5091069;28;19981;-80
2022/09/21 10:41:48;;;;;;;;;;;;;;;;;;5091285;28;19927;-76
2022/09/21 10:44:14;;;;;;;;;;;;;;;;;;5069373;28;20009;-80
2022/09/21 10:46:40;;;;;;;;;;;;;;;;;;5069550;28;19920;-77
2022/09/21 10:49:10;;;;;;;;;;;;;;;;;;5076798;28;19920;-80
2022/09/21 10:51:35;;;;;;;;;;;;;;;;;;5072810;28;19927;-79
2022/09/21 10:54:01;;;;;;;;;;;;;;;;;;5071503;28;20011;-80
2022/09/21 10:56:26;;;;;;;;;;;;;;;;;;5073425;28;20555;-79
2022/09/21 10:59:11;;;;;;;;;;;;;;;;;;5090368;28;19943;-79
2022/09/21 11:01:41;;;;;;;;;;;;;;;;;;5090361;28;19947;-79
2022/09/21 11:04:07;;;;;;;;;;;;;;;;;;5089762;28;20010;-79
2022/09/21 11:06:36;;;;;;;;;;;;;;;;;;5072095;28;19920;-78
2022/09/21 11:09:02;;;;;;;;;;;;;;;;;;5090572;28;19916;-79
2022/09/21 11:11:36;;;;;;;;;;;;;;;;;;5090438;28;19920;-79
2022/09/21 11:14:20;;;;;;;;;;;;;;;;;;5091136;28;19916;-78
2022/09/21 11:16:55;;;;;;;;;;;;;;;;;;5091532;28;20241;-79
2022/09/21 11:19:24;;;;;;;;;;;;;;;;;;5074717;28;19920;-79
2022/09/21 11:21:52;;;;;;;;;;;;;;;;;;5074254;28;19931;-78
2022/09/21 11:24:36;;;;;;;;;;;;;;;;;;5094184;28;19927;-78
2022/09/21 11:27:22;;;;;;;;;;;;;;;;;;5091107;28;20023;-78
2022/09/21 11:30:03;;;;;;;;;;;;;;;;;;5088978;28;19932;-79
2022/09/21 11:32:47;;;;;;;;;;;;;;;;;;5073724;28;19916;-79
2022/09/21 11:35:29;;;;;;;;;;;;;;;;;;5088069;28;19983;-78
2022/09/21 11:38:04;;;;;;;;;;;;;;;;;;5071936;28;20084;-78
2022/09/21 11:40:29;;;;;;;;;;;;;;;;;;5091844;28;19912;-79
2022/09/21 11:42:54;;;;;;;;;;;;;;;;;;5091240;28;20246;-78
2022/09/21 11:45:31;;;;;;;;;;;;;;;;;;5090928;28;19912;-77
2022/09/21 11:48:04;;;;;;;;;;;;;;;;;;5071432;28;19916;-78
2022/09/21 11:50:47;;;;;;;;;;;;;;;;;;5066152;28;19924;-79
2022/09/21 11:53:13;;;;;;;;;;;;;;;;;;5069056;28;20168;-78
2022/09/21 11:55:43;;;;;;;;;;;;;;;;;;5068407;28;19963;-78
2022/09/21 11:58:12;;;;;;;;;;;;;;;;;;5070041;28;20015;-80
2022/09/21 12:00:50;;;;;;;;;;;;;;;;;;5070642;28;20341;-79
2022/09/21 12:03:24;;;;;;;;;;;;;;;;;;5070705;28;19965;-78
2022/09/21 12:06:01;;;;;;;;;;;;;;;;;;5070226;28;19916;-79
2022/09/21 12:08:27;;;;;;;;;;;;;;;;;;5053647;28;19916;-79
2022/09/21 12:11:17;;;;;;;;;;;;;;;;;;5073522;28;19928;-80
2022/09/21 12:13:42;;;;;;;;;;;;;;;;;;5076629;28;20001;-77
2022/09/21 12:16:08;;;;;;;;;;;;;;;;;;5093867;28;19912;-78
2022/09/21 12:18:57;;;;;;;;;;;;;;;;;;5075946;28;20336;-79
2022/09/21 12:21:26;;;;;;;;;;;;;;;;;;5083374;28;20071;-78
2022/09/21 12:23:55;;;;;;;;;;;;;;;;;;5077123;28;19916;-77
2022/09/21 12:26:25;;;;;;;;;;;;;;;;;;5076155;28;19966;-77
2022/09/21 12:29:01;;;;;;;;;;;;;;;;;;5094586;28;19916;-77
2022/09/21 12:31:42;;;;;;;;;;;;;;;;;;5075926;28;19912;-77
2022/09/21 12:34:12;;;;;;;;;;;;;;;;;;5075803;28;19956;-78
2022/09/21 12:36:39;;;;;;;;;;;;;;;;;;5074995;28;19912;-76
2022/09/21 12:39:04;;;;;;;;;;;;;;;;;;5075364;28;20314;-77
2022/09/21 12:41:51;;;;;;;;;;;;;;;;;;5092981;28;19912;-76
2022/09/21 12:44:25;;;;;;;;;;;;;;;;;;5092618;28;19939;-77
2022/09/21 12:47:08;;;;;;;;;;;;;;;;;;5075114;28;19916;-76
2022/09/21 12:49:35;;;;;;;;;;;;;;;;;;5076843;28;19947;-75
2022/09/21 12:52:02;;;;;;;;;;;;;;;;;;5094273;28;19918;-77
2022/09/21 12:54:35;;;;;;;;;;;;;;;;;;5076389;28;19916;-77
2022/09/21 12:57:14;;;;;;;;;;;;;;;;;;5076618;28;19912;-77
2022/09/21 12:59:42;;;;;;;;;;;;;;;;;;5076192;28;19916;-76
2022/09/21 13:02:11;;;;;;;;;;;;;;;;;;5076454;28;19916;-78
2022/09/21 13:04:44;;;;;;;;;;;;;;;;;;5094552;28;20141;-78
2022/09/21 13:07:21;;;;;;;;;;;;;;;;;;5061192;28;19939;-78
2022/09/21 13:09:47;;;;;;;;;;;;;;;;;;5098010;28;19943;-77
2022/09/21 13:12:13;;;;;;;;;;;;;;;;;;5079827;28;20318;-77
2022/09/21 13:14:41;;;;;;;;;;;;;;;;;;5097297;28;20284;-78
2022/09/21 13:17:07;;;;;;;;;;;;;;;;;;5079997;28;19919;-78
2022/09/21 13:19:32;;;;;;;;;;;;;;;;;;5097545;28;19916;-78
2022/09/21 13:22:13;;;;;;;;;;;;;;;;;;5079331;28;19969;-78
2022/09/21 13:24:38;;;;;;;;;;;;;;;;;;5079630;28;19916;-78
2022/09/21 13:27:05;;;;;;;;;;;;;;;;;;5079234;28;19916;-77
2022/09/21 13:29:32;;;;;;;;;;;;;;;;;;5097344;28;20353;-76
2022/09/21 13:32:03;;;;;;;;;;;;;;;;;;5079403;28;19916;-78
2022/09/21 13:34:32;;;;;;;;;;;;;;;;;;5097191;28;20377;-78
2022/09/21 13:37:13;;;;;;;;;;;;;;;;;;5097237;28;19916;-79
2022/09/21 13:39:44;;;;;;;;;;;;;;;;;;5079075;28;19916;-78
2022/09/21 13:42:28;;;;;;;;;;;;;;;;;;5096702;28;19920;-77
2022/09/21 13:44:53;;;;;;;;;;;;;;;;;;5079067;28;19916;-77
2022/09/21 13:47:31;;;;;;;;;;;;;;;;;;5078803;28;19974;-79
2022/09/21 13:49:57;;;;;;;;;;;;;;;;;;5078666;28;19955;-78
2022/09/21 13:52:22;;;;;;;;;;;;;;;;;;5078423;28;19981;-79
2022/09/21 13:54:51;;;;;;;;;;;;;;;;;;5078454;28;19965;-76
2022/09/21 13:57:27;;;;;;;;;;;;;;;;;;5096478;28;20536;-77
2022/09/21 14:00:16;;;;;;;;;;;;;;;;;;5078098;28;19916;-77
2022/09/21 14:02:43;;;;;;;;;;;;;;;;;;5085534;28;19923;-78
2022/09/21 14:05:28;;;;;;;;;;;;;;;;;;5101807;28;20011;-77
2022/09/21 14:07:55;;;;;;;;;;;;;;;;;;5084188;28;20322;-78
2022/09/21 14:10:20;;;;;;;;;;;;;;;;;;5078993;28;20333;-77
2022/09/21 14:12:46;;;;;;;;;;;;;;;;;;5080890;28;19956;-77
2022/09/21 14:15:18;;;;;;;;;;;;;;;;;;5097462;28;19924;-78
2022/09/21 14:17:44;;;;;;;;;;;;;;;;;;5078214;28;19916;-77
2022/09/21 14:20:26;;;;;;;;;;;;;;;;;;5078221;28;19916;-77
2022/09/21 14:23:09;;;;;;;;;;;;;;;;;;5061635;28;19916;-77
2022/09/21 14:25:54;;;;;;;;;;;;;;;;;;5061069;28;19973;-77
2022/09/21 14:28:38;;;;;;;;;;;;;;;;;;5096072;28;19916;-77
2022/09/21 14:31:08;;;;;;;;;;;;;;;;;;5078080;28;20341;-77
2022/09/21 14:33:42;;;;;;;;;;;;;;;;;;5077902;28;19975;-77
2022/09/21 14:36:08;;;;;;;;;;;;;;;;;;5096011;28;19920;-77
2022/09/21 14:38:40;;;;;;;;;;;;;;;;;;5077809;28;19916;-77
2022/09/21 14:41:06;;;;;;;;;;;;;;;;;;5077473;28;19923;-77
2022/09/21 14:43:35;;;;;;;;;;;;;;;;;;5078008;28;19916;-77
2022/09/21 14:46:24;;;;;;;;;;;;;;;;;;5078542;28;19948;-77
2022/09/21 14:49:07;;;;;;;;;;;;;;;;;;5058016;28;19916;-77
2022/09/21 14:51:39;;;;;;;;;;;;;;;;;;5077707;28;19916;-76
2022/09/21 14:54:16;;;;;;;;;;;;;;;;;;5095269;28;19916;-76
2022/09/21 14:56:44;;;;;;;;;;;;;;;;;;5060777;28;19916;-76
2022/09/21 14:59:14;;;;;;;;;;;;;;;;;;5077330;28;19997;-76
2022/09/21 15:01:41;;;;;;;;;;;;;;;;;;5095640;28;19916;-76
2022/09/21 15:04:25;;;;;;;;;;;;;;;;;;5077477;28;19965;-77
2022/09/21 15:12:45;;;;;;;;;;;;;;;;;;5075225;28;20024;-77
2022/09/21 15:15:19;;;;;;;;;;;;;;;;;;5040534;28;20294;-77
2022/09/21 15:17:51;;;;;;;;;;;;;;;;;;5057067;28;20340;-76
2022/09/21 15:20:17;;;;;;;;;;;;;;;;;;5056742;28;19971;-77
2022/09/21 15:22:43;;;;;;;;;;;;;;;;;;5056622;28;19988;-78
2022/09/21 15:25:10;;;;;;;;;;;;;;;;;;5056400;28;20081;-77
2022/09/21 15:27:36;;;;;;;;;;;;;;;;;;5074284;28;19921;-77
2022/09/21 15:30:03;;;;;;;;;;;;;;;;;;5056372;28;19923;-78
2022/09/21 15:32:39;;;;;;;;;;;;;;;;;;5056747;28;19927;-78
2022/09/21 15:35:05;;;;;;;;;;;;;;;;;;5057076;28;19916;-78
2022/09/21 15:37:34;;;;;;;;;;;;;;;;;;5056270;28;19916;-78
2022/09/21 15:40:04;;;;;;;;;;;;;;;;;;5074393;28;19916;-77
2022/09/21 15:42:29;;;;;;;;;;;;;;;;;;5056622;28;19916;-76
2022/09/21 15:45:15;;;;;;;;;;;;;;;;;;5040064;28;19917;-78
2022/09/21 15:47:44;;;;;;;;;;;;;;;;;;5073661;28;20035;-78
2022/09/21 15:50:13;;;;;;;;;;;;;;;;;;5057014;28;19923;-78
2022/09/21 15:52:41;;;;;;;;;;;;;;;;;;5056432;28;20004;-78
2022/09/21 15:55:09;;;;;;;;;;;;;;;;;;5056882;28;20304;-77
2022/09/21 15:57:39;;;;;;;;;;;;;;;;;;5056541;28;20330;-78
2022/09/21 16:00:17;;;;;;;;;;;;;;;;;;5040161;28;20341;-78
2022/09/21 16:03:11;;;;;;;;;;;;;;;;;;5074204;28;20304;-78
2022/09/21 16:05:46;;;;;;;;;;;;;;;;;;5020037;28;19924;-77
2022/09/21 16:08:25;;;;;;;;;;;;;;;;;;5074162;28;19925;-78
2022/09/21 16:10:50;;;;;;;;;;;;;;;;;;5062271;28;19924;-77
2022/09/21 16:16:06;;;;;;;;;;;;;;;;;;5079001;28;19918;-78
2022/09/21 16:18:37;;;;;;;;;;;;;;;;;;5094462;28;20002;-77
2022/09/21 16:21:07;;;;;;;;;;;;;;;;;;5094284;28;19985;-78
2022/09/21 16:23:32;;;;;;;;;;;;;;;;;;5076386;28;19916;-76
2022/09/21 16:26:00;;;;;;;;;;;;;;;;;;5094242;28;20300;-78
2022/09/21 16:28:28;;;;;;;;;;;;;;;;;;5076249;28;19916;-80
2022/09/21 16:30:55;;;;;;;;;;;;;;;;;;5094200;28;20261;-77
2022/09/21 16:33:36;;;;;;;;;;;;;;;;;;5076784;28;19973;-77
2022/09/21 16:36:03;;;;;;;;;;;;;;;;;;5094226;28;19947;-77
2022/09/21 16:38:29;;;;;;;;;;;;;;;;;;5094375;28;20379;-79
2022/09/21 16:40:55;;;;;;;;;;;;;;;;;;5076563;28;19916;-79
2022/09/21 16:43:23;;;;;;;;;;;;;;;;;;5098119;28;19924;-79
2022/09/21 16:45:48;;;;;;;;;;;;;;;;;;5079832;28;19923;-80
2022/09/21 16:48:13;;;;;;;;;;;;;;;;;;5063162;28;19916;-79
2022/09/21 16:50:40;;;;;;;;;;;;;;;;;;5097782;28;19972;-80
2022/09/21 16:53:05;;;;;;;;;;;;;;;;;;5063563;28;20331;-77
2022/09/21 16:55:31;;;;;;;;;;;;;;;;;;5097812;28;19916;-78
2022/09/21 16:57:59;;;;;;;;;;;;;;;;;;5079980;28;19916;-77
2022/09/21 17:00:25;;;;;;;;;;;;;;;;;;5080016;28;19916;-78
2022/09/21 17:02:50;;;;;;;;;;;;;;;;;;5080006;28;20275;-78
2022/09/21 17:05:18;;;;;;;;;;;;;;;;;;5079539;28;20006;-78
2022/09/21 17:07:53;;;;;;;;;;;;;;;;;;5097588;28;19952;-77
2022/09/21 17:10:18;;;;;;;;;;;;;;;;;;5079393;28;19916;-78
2022/09/21 17:12:43;;;;;;;;;;;;;;;;;;5079426;28;20010;-78